createdAt,value
2019-02-21T00:02:44.374Z,10.17
2019-02-21T00:05:49.512Z,10.63
2019-02-21T00:08:54.747Z,10.30
2019-02-21T00:11:59.929Z,11.50
2019-02-21T00:15:05.399Z,11.83
2019-02-21T00:18:11.608Z,9.97
2019-02-21T00:21:16.774Z,9.47
2019-02-21T00:24:21.937Z,10.90
2019-02-21T00:27:27.090Z,11.13
2019-02-21T00:30:35.307Z,11.47
2019-02-21T00:33:39.055Z,13.03
2019-02-21T00:36:44.214Z,12.53
2019-02-21T00:39:49.327Z,13.73
2019-02-21T00:42:54.481Z,12.23
2019-02-21T00:45:59.653Z,12.53
2019-02-21T00:49:04.791Z,12.60
2019-02-21T00:52:09.931Z,11.40
2019-02-21T00:55:15.051Z,12.07
2019-02-21T00:58:20.199Z,11.53
2019-02-21T01:01:25.533Z,10.93
2019-02-21T01:04:30.697Z,11.57
2019-02-21T01:07:36.932Z,11.47
2019-02-21T01:10:42.113Z,10.83
2019-02-21T01:13:47.423Z,11.60
2019-02-21T01:16:52.481Z,10.70
2019-02-21T01:19:57.650Z,10.73
2019-02-21T01:23:02.844Z,11.30
2019-02-21T01:26:08.083Z,9.83
2019-02-21T01:29:13.222Z,11.63
2019-02-21T01:32:18.352Z,10.87
2019-02-21T01:35:23.470Z,11.47
2019-02-21T01:38:28.661Z,11.10
2019-02-21T01:41:33.898Z,11.73
2019-02-21T01:44:39.116Z,10.60
2019-02-21T01:47:44.287Z,11.03
2019-02-21T01:50:49.414Z,10.17
2019-02-21T01:53:54.549Z,11.23
2019-02-21T01:56:59.802Z,10.90
2019-02-21T02:00:05.831Z,10.33
2019-02-21T02:03:11.092Z,11.43
2019-02-21T02:06:16.319Z,11.10
2019-02-21T02:09:21.935Z,10.53
2019-02-21T02:12:27.100Z,10.23
2019-02-21T02:15:33.827Z,10.00
2019-02-21T02:18:39.332Z,10.30
2019-02-21T02:21:44.561Z,11.07
2019-02-21T02:24:49.730Z,12.27
2019-02-21T02:27:54.914Z,10.80
2019-02-21T02:31:00.103Z,10.30
2019-02-21T02:34:06.474Z,10.33
2019-02-21T02:37:11.625Z,10.37
2019-02-21T02:40:16.941Z,10.00
2019-02-21T02:43:22.219Z,10.50
2019-02-21T02:46:27.468Z,10.93
2019-02-21T02:49:32.640Z,9.93
2019-02-21T02:52:37.923Z,9.00
2019-02-21T02:55:43.081Z,10.37
2019-02-21T02:58:48.312Z,10.10
2019-02-21T03:01:54.575Z,10.80
2019-02-21T03:04:59.717Z,12.10
2019-02-21T03:08:04.913Z,11.43
2019-02-21T03:11:10.438Z,12.40
2019-02-21T03:14:15.669Z,11.50
2019-02-21T03:17:20.885Z,10.80
2019-02-21T03:20:26.069Z,9.70
2019-02-21T03:23:31.315Z,10.27
2019-02-21T03:26:36.577Z,10.30
2019-02-21T03:29:41.751Z,9.07
2019-02-21T03:32:46.896Z,10.60
2019-02-21T03:35:52.052Z,10.47
2019-02-21T03:38:57.273Z,11.40
2019-02-21T03:42:02.452Z,10.40
2019-02-21T03:45:08.876Z,9.57
2019-02-21T03:48:14.100Z,10.80
2019-02-21T03:51:19.320Z,9.53
2019-02-21T03:54:24.504Z,9.73
2019-02-21T03:57:31.158Z,9.87
2019-02-21T04:00:37.310Z,11.70
2019-02-21T04:03:42.562Z,9.97
2019-02-21T04:06:47.768Z,9.53
2019-02-21T04:09:52.949Z,9.77
2019-02-21T04:12:58.084Z,9.83
2019-02-21T04:16:03.326Z,10.23
2019-02-21T04:19:08.511Z,9.67
2019-02-21T04:22:13.698Z,10.70
2019-02-21T04:25:18.996Z,9.53
2019-02-21T04:28:24.178Z,9.50
2019-02-21T04:31:29.325Z,8.47
2019-02-21T04:34:34.448Z,10.07
2019-02-21T04:37:39.594Z,10.00
2019-02-21T04:40:44.814Z,10.10
2019-02-21T04:43:49.954Z,9.80
2019-02-21T04:46:55.258Z,10.83
2019-02-21T04:50:00.630Z,10.40
2019-02-21T04:53:06.091Z,15.40
2019-02-21T04:56:11.277Z,18.77
2019-02-21T04:59:16.392Z,11.10
2019-02-21T05:02:28.864Z,9.57
2019-02-21T05:05:28.516Z,9.80
2019-02-21T05:08:33.696Z,9.00
2019-02-21T05:11:38.796Z,8.83
2019-02-21T05:14:44.023Z,9.23
2019-02-21T05:17:49.186Z,9.30
2019-02-21T05:20:54.418Z,9.10
2019-02-21T05:23:59.555Z,8.47
2019-02-21T05:27:09.495Z,8.70
2019-02-21T05:30:18.589Z,10.10
2019-02-21T05:33:41.431Z,9.87
2019-02-21T05:37:02.727Z,14.07
2019-02-21T05:40:41.975Z,10.07
2019-02-21T05:43:58.643Z,9.93
2019-02-21T05:47:28.892Z,9.50
2019-02-21T05:50:56.070Z,10.30
2019-02-21T05:54:09.127Z,9.30
2019-02-21T05:57:23.818Z,9.70
2019-02-21T06:00:54.024Z,10.40
2019-02-21T06:04:04.738Z,9.90
2019-02-21T06:07:34.721Z,11.50
2019-02-21T06:10:51.568Z,10.63
2019-02-21T06:14:14.380Z,11.00
2019-02-21T06:17:41.301Z,10.53
2019-02-21T06:21:08.459Z,10.00
2019-02-21T06:24:35.336Z,10.63
2019-02-21T06:27:54.841Z,10.97
2019-02-21T06:31:03.119Z,10.40
2019-02-21T06:34:08.257Z,11.30
2019-02-21T06:37:13.416Z,9.97
2019-02-21T06:40:18.587Z,11.03
2019-02-21T06:43:23.744Z,10.83
2019-02-21T06:46:28.968Z,11.23
2019-02-21T06:49:34.086Z,13.53
2019-02-21T06:52:40.690Z,15.00
2019-02-21T06:55:45.979Z,15.63
2019-02-21T06:58:51.116Z,14.37
2019-02-21T07:01:56.256Z,13.03
2019-02-21T07:05:01.377Z,11.23
2019-02-21T07:08:08.838Z,11.37
2019-02-21T07:11:14.162Z,13.20
2019-02-21T07:14:26.538Z,11.93
2019-02-21T07:17:32.648Z,14.93
2019-02-21T07:20:39.736Z,19.27
2019-02-21T07:23:44.711Z,20.37
2019-02-21T07:26:49.890Z,18.10
2019-02-21T07:29:55.349Z,14.77
2019-02-21T07:33:00.509Z,15.37
2019-02-21T07:36:05.782Z,12.00
2019-02-21T07:39:17.172Z,11.40
2019-02-21T07:42:17.747Z,13.27
2019-02-21T07:45:22.899Z,13.93
2019-02-21T07:48:27.989Z,12.87
2019-02-21T07:51:35.841Z,12.10
2019-02-21T07:54:39.984Z,11.67
2019-02-21T07:57:45.213Z,10.27
2019-02-21T08:00:50.394Z,10.93
2019-02-21T08:03:55.546Z,11.23
2019-02-21T08:07:00.689Z,12.10
2019-02-21T08:10:06.067Z,11.03
2019-02-21T08:13:11.250Z,11.53
2019-02-21T08:16:17.306Z,12.37
2019-02-21T08:19:22.390Z,12.83
2019-02-21T08:22:27.557Z,12.10
2019-02-21T08:25:32.666Z,11.80
2019-02-21T08:28:37.879Z,12.40
2019-02-21T08:31:43.104Z,12.83
2019-02-21T08:34:50.570Z,13.77
2019-02-21T08:37:55.709Z,13.63
2019-02-21T08:41:00.892Z,12.37
2019-02-21T08:44:06.053Z,12.50
2019-02-21T08:47:14.286Z,11.27
2019-02-21T08:50:22.101Z,12.50
2019-02-21T08:53:28.127Z,10.60
2019-02-21T08:56:33.187Z,10.20
2019-02-21T08:59:38.335Z,12.47
2019-02-21T09:02:43.458Z,13.10
2019-02-21T09:05:48.564Z,13.40
2019-02-21T09:08:53.844Z,11.10
2019-02-21T09:11:58.998Z,10.23
2019-02-21T09:15:09.562Z,11.30
2019-02-21T09:18:16.344Z,10.20
2019-02-21T09:21:21.455Z,9.17
2019-02-21T09:24:38.039Z,9.90
2019-02-21T09:27:34.489Z,10.37
2019-02-21T09:30:39.631Z,10.27
2019-02-21T09:33:45.857Z,14.90
2019-02-21T09:36:50.963Z,12.30
2019-02-21T09:39:56.097Z,13.00
2019-02-21T09:43:01.374Z,10.87
2019-02-21T09:46:06.725Z,11.87
2019-02-21T09:49:11.918Z,11.10
2019-02-21T09:52:17.099Z,12.57
2019-02-21T09:55:22.350Z,15.07
2019-02-21T09:58:27.472Z,13.30
2019-02-21T10:01:32.679Z,14.43
2019-02-21T10:04:38.095Z,13.43
2019-02-21T10:07:43.314Z,12.70
2019-02-21T10:10:48.403Z,12.63
2019-02-21T10:13:53.544Z,15.60
2019-02-21T10:16:58.703Z,13.57
2019-02-21T10:20:04.294Z,13.27
2019-02-21T10:23:09.722Z,13.03
2019-02-21T10:26:14.849Z,13.80
2019-02-21T10:29:20.471Z,14.37
2019-02-21T10:32:25.640Z,18.77
2019-02-21T10:35:30.857Z,15.50
2019-02-21T10:38:36.059Z,15.20
2019-02-21T10:41:41.223Z,16.53
2019-02-21T10:44:46.396Z,17.98
2019-02-21T10:47:51.538Z,17.90
2019-02-21T10:50:56.818Z,19.97
2019-02-21T10:54:02.110Z,16.30
2019-02-21T10:57:07.185Z,14.77
2019-02-21T11:00:21.357Z,20.47
2019-02-21T11:03:26.613Z,17.87
2019-02-21T11:06:31.852Z,17.27
2019-02-21T11:09:37.034Z,16.30
2019-02-21T11:12:42.247Z,14.60
2019-02-21T11:15:47.370Z,14.23
2019-02-21T11:18:52.492Z,17.60
2019-02-21T11:21:57.683Z,14.00
2019-02-21T11:25:02.856Z,14.37
2019-02-21T11:28:07.978Z,14.30
2019-02-21T11:31:13.065Z,18.67
2019-02-21T11:34:18.230Z,15.17
2019-02-21T11:37:23.417Z,16.00
2019-02-21T11:40:28.567Z,16.00
2019-02-21T11:43:34.723Z,14.77
2019-02-21T11:46:40.008Z,14.40
2019-02-21T11:49:45.236Z,14.00
2019-02-21T11:52:50.388Z,13.80
2019-02-21T11:55:55.532Z,13.03
2019-02-21T11:59:00.725Z,14.13
2019-02-21T12:02:05.904Z,13.40
2019-02-21T12:05:17.496Z,14.90
2019-02-21T12:08:18.157Z,15.00
2019-02-21T12:11:23.252Z,13.60
2019-02-21T12:14:28.442Z,12.57
2019-02-21T12:17:33.553Z,12.57
2019-02-21T12:20:38.712Z,16.43
2019-02-21T12:23:43.922Z,15.70
2019-02-21T12:26:49.157Z,14.20
2019-02-21T12:29:54.258Z,14.53
2019-02-21T12:32:59.431Z,13.10
2019-02-21T12:36:04.593Z,13.27
2019-02-21T12:39:09.751Z,13.03
2019-02-21T12:42:16.431Z,11.90
2019-02-21T12:45:21.703Z,13.43
2019-02-21T12:48:26.899Z,12.60
2019-02-21T12:51:32.050Z,12.50
2019-02-21T12:54:37.163Z,12.07
2019-02-21T12:57:42.340Z,12.47
2019-02-21T13:00:47.596Z,27.93
2019-02-21T13:03:52.750Z,11.73
2019-02-21T13:06:58.027Z,12.53
2019-02-21T13:10:03.220Z,10.57
2019-02-21T13:13:09.564Z,29.67
2019-02-21T13:16:14.724Z,11.03
2019-02-21T13:19:19.840Z,11.07
2019-02-21T13:22:24.958Z,11.77
2019-02-21T13:25:30.136Z,16.93
2019-02-21T13:28:35.369Z,11.67
2019-02-21T13:31:40.502Z,15.10
2019-02-21T13:34:45.682Z,11.43
2019-02-21T13:37:50.855Z,17.33
2019-02-21T13:40:56.002Z,11.73
2019-02-21T13:44:01.185Z,10.30
2019-02-21T13:47:06.520Z,11.33
2019-02-21T13:50:13.866Z,10.57
2019-02-21T13:53:19.016Z,11.60
2019-02-21T13:56:24.202Z,11.30
2019-02-21T13:59:29.455Z,10.73
2019-02-21T14:02:35.614Z,10.43
2019-02-21T14:05:40.808Z,10.73
2019-02-21T14:08:45.989Z,10.93
2019-02-21T14:11:51.177Z,10.67
2019-02-21T14:14:57.528Z,10.60
2019-02-21T14:18:02.808Z,11.53
2019-02-21T14:21:08.022Z,11.73
2019-02-21T14:24:13.260Z,11.10
2019-02-21T14:27:18.667Z,11.00
2019-02-21T14:30:23.812Z,11.03
2019-02-21T14:33:28.988Z,9.97
2019-02-21T14:36:34.130Z,11.13
2019-02-21T14:39:39.332Z,10.43
2019-02-21T14:42:44.472Z,10.37
2019-02-21T14:45:49.696Z,9.03
2019-02-21T14:48:54.875Z,9.27
2019-02-21T14:52:02.014Z,9.63
2019-02-21T14:55:08.597Z,9.73
2019-02-21T14:58:14.751Z,9.77
2019-02-21T15:01:19.904Z,10.23
2019-02-21T15:04:25.030Z,10.13
2019-02-21T15:07:30.201Z,11.03
2019-02-21T15:10:35.342Z,10.73
2019-02-21T15:13:40.533Z,9.33
2019-02-21T15:16:49.305Z,11.73
2019-02-21T15:19:56.123Z,10.97
2019-02-21T15:23:01.331Z,11.80
2019-02-21T15:26:06.645Z,11.27
2019-02-21T15:29:11.748Z,10.33
2019-02-21T15:32:17.020Z,11.17
2019-02-21T15:35:22.192Z,11.23
2019-02-21T15:38:27.359Z,11.20
2019-02-21T15:41:32.668Z,11.33
2019-02-21T15:44:37.809Z,11.43
2019-02-21T15:47:42.956Z,10.90
2019-02-21T15:50:48.110Z,11.63
2019-02-21T15:53:53.265Z,11.77
2019-02-21T15:56:58.482Z,10.77
2019-02-21T16:00:03.664Z,11.03
2019-02-21T16:03:10.167Z,12.37
2019-02-21T16:06:15.296Z,11.97
2019-02-21T16:09:20.533Z,11.97
2019-02-21T16:12:26.095Z,12.50
2019-02-21T16:15:31.375Z,12.47
2019-02-21T16:18:36.660Z,12.27
2019-02-21T16:21:41.910Z,11.47
2019-02-21T16:24:48.073Z,11.73
2019-02-21T16:27:55.226Z,12.60
2019-02-21T16:31:00.241Z,11.60
2019-02-21T16:34:05.385Z,11.80
2019-02-21T16:37:10.571Z,12.97
2019-02-21T16:40:15.733Z,11.77
2019-02-21T16:43:20.850Z,11.17
2019-02-21T16:46:26.016Z,11.50
2019-02-21T16:49:31.161Z,10.77
2019-02-21T16:52:36.898Z,12.80
2019-02-21T16:55:42.144Z,13.17
2019-02-21T16:58:47.374Z,14.50
2019-02-21T17:01:52.635Z,11.10
2019-02-21T17:04:57.866Z,10.40
2019-02-21T17:08:03.086Z,10.67
2019-02-21T17:11:08.296Z,10.07
2019-02-21T17:14:13.476Z,16.90
2019-02-21T17:17:19.946Z,16.17
2019-02-21T17:20:25.206Z,18.60
2019-02-21T17:23:30.347Z,19.77
2019-02-21T17:26:35.608Z,17.67
2019-02-21T17:29:40.813Z,26.90
2019-02-21T17:32:46.344Z,24.73
2019-02-21T17:35:51.521Z,21.90
2019-02-21T17:38:56.664Z,30.43
2019-02-21T17:42:02.578Z,20.20
2019-02-21T17:45:08.744Z,17.33
2019-02-21T17:48:13.975Z,20.43
2019-02-21T17:51:19.127Z,18.07
2019-02-21T17:54:25.937Z,43.53
2019-02-21T17:57:31.376Z,32.77
2019-02-21T18:00:37.538Z,38.17
2019-02-21T18:03:42.869Z,27.50
2019-02-21T18:06:48.107Z,29.70
2019-02-21T18:09:53.291Z,22.17
2019-02-21T18:12:58.460Z,22.53
2019-02-21T18:16:03.623Z,20.47
2019-02-21T18:19:08.804Z,24.17
2019-02-21T18:22:14.026Z,18.17
2019-02-21T18:25:23.087Z,21.10
2019-02-21T18:28:28.339Z,22.10
2019-02-21T18:31:32.728Z,17.93
2019-02-21T18:34:38.028Z,22.50
2019-02-21T18:37:47.323Z,20.83
2019-02-21T18:40:50.149Z,19.17
2019-02-21T18:43:55.757Z,19.43
2019-02-21T18:47:01.019Z,19.50
2019-02-21T18:50:06.700Z,18.47
2019-02-21T18:53:11.849Z,19.77
2019-02-21T18:56:17.117Z,22.63
2019-02-21T18:59:31.340Z,32.27
2019-02-21T19:02:29.126Z,28.80
2019-02-21T19:05:36.239Z,17.60
2019-02-21T19:08:41.215Z,18.73
2019-02-21T19:11:46.386Z,18.27
2019-02-21T19:14:51.718Z,18.03
2019-02-21T19:17:56.866Z,16.83
2019-02-21T19:21:02.100Z,20.53
2019-02-21T19:24:07.259Z,22.83
2019-02-21T19:27:12.445Z,28.20
2019-02-21T19:30:20.897Z,39.87
2019-02-21T19:33:26.143Z,42.97
2019-02-21T19:36:31.296Z,36.40
2019-02-21T19:39:36.497Z,30.50
2019-02-21T19:42:41.732Z,27.17
2019-02-21T19:45:47.014Z,22.70
2019-02-21T19:48:52.213Z,24.33
2019-02-21T19:51:57.536Z,28.73
2019-02-21T19:55:02.805Z,25.23
2019-02-21T19:58:08.035Z,23.53
2019-02-21T20:01:13.263Z,23.63
2019-02-21T20:04:18.396Z,20.50
2019-02-21T20:07:23.777Z,21.87
2019-02-21T20:10:31.332Z,22.57
2019-02-21T20:13:36.637Z,22.20
2019-02-21T20:16:41.958Z,28.77
2019-02-21T20:19:48.089Z,28.10
2019-02-21T20:22:53.350Z,33.63
2019-02-21T20:25:58.779Z,34.10
2019-02-21T20:29:03.964Z,28.63
2019-02-21T20:32:09.208Z,29.23
2019-02-21T20:35:15.163Z,33.60
2019-02-21T20:38:20.486Z,32.93
2019-02-21T20:41:25.712Z,37.03
2019-02-21T20:44:32.150Z,34.13
2019-02-21T20:47:37.416Z,30.60
2019-02-21T20:50:42.683Z,31.30
2019-02-21T20:53:48.949Z,24.20
2019-02-21T20:56:54.135Z,21.57
2019-02-21T21:00:00.416Z,22.87
2019-02-21T21:03:05.979Z,22.73
2019-02-21T21:06:11.210Z,23.47
2019-02-21T21:09:16.449Z,23.17
2019-02-21T21:12:21.706Z,25.83
2019-02-21T21:15:26.977Z,26.87
2019-02-21T21:18:32.131Z,29.23
2019-02-21T21:21:37.300Z,31.07
2019-02-21T21:24:42.526Z,29.53
2019-02-21T21:27:47.780Z,30.67
2019-02-21T21:30:52.989Z,28.97
2019-02-21T21:33:58.144Z,24.67
2019-02-21T21:37:03.361Z,22.77
2019-02-21T21:40:10.559Z,24.00
2019-02-21T21:43:15.814Z,20.50
2019-02-21T21:46:21.050Z,19.67
2019-02-21T21:49:26.229Z,19.87
2019-02-21T21:52:31.462Z,20.53
2019-02-21T21:55:36.671Z,21.37
2019-02-21T21:58:41.848Z,18.50
2019-02-21T22:01:50.118Z,19.30
2019-02-21T22:04:55.272Z,22.40
2019-02-21T22:08:00.419Z,23.97
2019-02-21T22:11:06.583Z,24.30
2019-02-21T22:14:11.780Z,21.00
2019-02-21T22:17:16.957Z,26.77
2019-02-21T22:20:22.177Z,26.47
2019-02-21T22:23:27.327Z,21.60
2019-02-21T22:26:32.575Z,22.00
2019-02-21T22:29:37.698Z,22.50
2019-02-21T22:32:42.973Z,25.07
2019-02-21T22:35:48.310Z,22.07
2019-02-21T22:38:53.364Z,22.27
2019-02-21T22:41:58.825Z,22.40
2019-02-21T22:45:05.763Z,23.87
2019-02-21T22:48:10.989Z,23.87
2019-02-21T22:51:16.145Z,23.50
2019-02-21T22:54:21.362Z,23.57
2019-02-21T22:57:26.639Z,23.07
2019-02-21T23:01:04.879Z,22.87
2019-02-21T23:04:44.108Z,22.07
2019-02-21T23:08:11.532Z,22.27
2019-02-21T23:11:16.687Z,22.60
2019-02-21T23:14:21.977Z,22.53
2019-02-21T23:17:27.237Z,23.30
2019-02-21T23:20:32.397Z,24.50
2019-02-21T23:23:37.629Z,24.30
2019-02-21T23:26:42.891Z,25.17
2019-02-21T23:29:48.127Z,24.57
2019-02-21T23:32:53.353Z,23.43
2019-02-21T23:35:58.527Z,24.00
2019-02-21T23:39:04.284Z,23.57
2019-02-21T23:42:11.043Z,23.53
2019-02-21T23:45:17.667Z,23.87
2019-02-21T23:48:22.822Z,23.83
2019-02-21T23:51:30.234Z,23.20
2019-02-21T23:54:35.486Z,24.57
2019-02-21T23:57:40.625Z,29.77
